Solidao, Brazil
Current Conditions -  °F | °C
As of 5:00 PM on Monday 22 Dec 2014 (Local Time) from SBMK Reporting Station
Rain Showers Rain Showers  
Wind Chill: 86°   Ceiling: Unl
Heat Index: 87°   Visibility: 6mi
Dew Point: 63°   Wind: 6mph
Humidity: 45%   Direction: 50°NE
Pressure: 29.88"   Gusts: NA
Location:  15.93°S, 43.4°W
Report Text: SBMK 221900Z 05005KT 9999 VCSH FEW050TCU 30/17 Q1012
Loading
Personal Weather Stations






























Interactive Weather Map New forecast layout! Learn more

10-Day Weather Forecast

Advertisements
Track Severe Weather on mobile